< Typhoon 200414 2004 Season Typhoon 200416 >
Typhoon 200415 (MEGI)
General InformationTrack Information on Google MapsDetailed Wind InformationAccess Analytics MapList of All Images || NewsDisaster Info.WeblogTrackbackTyphoon FrontResourceGoogle EarthGE AnimationAtom FeedGeoJSON
Detalied Best Track (Time Zone = UTC)
Year Month Day Hour Lat. Long. Pressure (hPa) Wind (kt) Class Image Chart
2004 8 14 00 14.7 140.9 1002 0 2 Image Chart
2004 8 14 06 14.8 138.7 1000 0 2 Image Chart
2004 8 14 12 15.3 137.3 1000 0 2 Image Chart
2004 8 14 18 16.0 135.9 1000 0 2 Image Chart
2004 8 15 00 16.9 135.3 1000 0 2 Image Chart
2004 8 15 06 17.7 134.2 996 0 2 Image Chart
2004 8 15 12 18.0 133.3 996 0 2 Image Chart
2004 8 15 18 18.2 132.5 996 0 2 Image Chart
2004 8 16 00 18.6 131.6 996 0 2 Image Chart
2004 8 16 06 18.8 130.8 992 35 3 Image Chart
2004 8 16 12 20.0 129.6 992 35 3 Image Chart
2004 8 16 18 21.2 128.8 992 35 3 Image Chart
2004 8 16 21 22.2 128.2 990 40 3 Image Chart
2004 8 17 00 23.0 127.8 990 40 3 Image Chart
2004 8 17 03 24.0 127.4 990 40 3 Image Chart
2004 8 17 06 25.1 126.9 985 45 3 Image Chart
2004 8 17 09 25.8 126.5 980 50 4 Image Chart
2004 8 17 12 26.8 126.2 980 50 4 Image Chart
2004 8 17 18 27.6 125.6 975 60 4 Image Chart
2004 8 18 00 28.4 125.3 970 65 5 Image Chart
2004 8 18 06 30.0 125.4 970 65 5 Image Chart
2004 8 18 09 30.5 125.5 970 65 5 Image Chart
2004 8 18 12 31.2 126.2 970 65 5 Image Chart
2004 8 18 15 32.0 127.0 970 65 5 Image Chart
2004 8 18 18 33.1 127.8 970 65 5 Image Chart
2004 8 18 21 34.4 128.7 970 65 5 Image Chart
2004 8 19 00 35.6 129.7 970 65 5 Image Chart
2004 8 19 03 36.7 130.9 970 65 5 Image Chart
2004 8 19 06 37.7 132.2 970 65 5 Image Chart
2004 8 19 09 38.7 133.6 970 65 5 Image Chart
2004 8 19 12 39.5 135.4 975 60 4 Image Chart
2004 8 19 15 40.1 137.1 975 60 4 Image Chart
2004 8 19 18 40.6 138.6 975 60 4 Image Chart
2004 8 19 21 40.9 140.2 980 60 4 Image Chart
2004 8 19 23 41.1 141.0 980 60 4 Image Chart
2004 8 20 00 41.2 141.7 980 55 4 Image Chart
2004 8 20 03 41.4 143.9 980 55 4 Image Chart
2004 8 20 06 41.6 145.8 985 50 4 Image Chart
2004 8 20 09 42.0 148.0 984 0 6 Image Chart
2004 8 20 12 42.0 152.0 984 0 6 Image Chart
2004 8 20 18 42.5 153.8 984 0 6 Image Chart
2004 8 21 00 43.0 155.9 984 0 6 Image Chart
2004 8 21 06 43.5 160.0 986 0 6 Image Chart
2004 8 21 12 43.8 163.6 986 0 6 Image Chart
2004 8 21 18 43.8 167.1 988 0 6 Image Chart
2004 8 22 00 43.9 170.4 988 0 6 Image Chart
2004 8 22 06 42.0 174.1 992 0 6 Image Chart
Japan Meteorological Agency Best Track Data | Correction Date : 2010-03-26
< Typhoon 200414 2004 Season Typhoon 200416 >

Help